Time;durP1;ratioP1;P1;durP2;ratioP2;P2;SDS_P1;SDS_P2;PMS_P1;PMS_P2;Temp;Humidity;BMP_temperature;BMP_pressure;BME280_temperature;BME280_humidity;BME280_pressure;Samples;Min_cycle;Max_cycle;Signal;HPM_P1;HPM_P2
2023/04/17 00:01:12;;;;;;;;;;;6.97;25.14;;;;;;2671114;76;20319;-91
2023/04/17 00:04:40;;;;;;;;;;;7.03;25.97;;;;;;2672361;76;20418;-90
2023/04/17 00:08:09;;;;;;;;;;;7.10;26.39;;;;;;2671702;76;21221;-91
2023/04/17 00:11:37;;;;;;;;;;;7.11;26.26;;;;;;2670980;76;20421;-92
2023/04/17 00:15:05;;;;;;;;;;;7.04;26.04;;;;;;2671722;76;20422;-91
2023/04/17 00:18:33;;;;;;;;;;;7.00;25.52;;;;;;2672045;76;20410;-91
2023/04/17 00:22:01;;;;;;;;;;;6.85;23.93;;;;;;2672285;76;20431;-91
2023/04/17 00:25:29;;;;;;;;;;;6.71;22.53;;;;;;2672069;76;21212;-90
2023/04/17 00:28:57;;;;;;;;;;;6.57;21.90;;;;;;2672389;76;20415;-91
2023/04/17 00:32:26;;;;;;;;;;;6.54;22.13;;;;;;2671197;76;20422;-90
2023/04/17 00:35:54;;;;;;;;;;;6.56;23.08;;;;;;2671804;76;20413;-91
2023/04/17 00:39:22;;;;;;;;;;;6.65;23.79;;;;;;2671243;76;20493;-90
2023/04/17 00:42:52;;;;;;;;;;;6.68;23.90;;;;;;2672030;76;20299;-91
2023/04/17 00:46:20;;;;;;;;;;;6.71;23.98;;;;;;2672737;76;20958;-90
2023/04/17 00:49:48;;;;;;;;;;;6.79;24.72;;;;;;2672721;76;20897;-92
2023/04/17 00:53:16;;;;;;;;;;;6.90;25.98;;;;;;2672036;76;20413;-91
2023/04/17 00:56:44;;;;;;;;;;;7.02;26.81;;;;;;2672855;76;20768;-91
2023/04/17 01:00:12;;;;;;;;;;;7.07;27.52;;;;;;2672359;76;20296;-91
2023/04/17 01:03:40;;;;;;;;;;;7.09;28.16;;;;;;2672149;76;20300;-91
2023/04/17 01:07:09;;;;;;;;;;;7.17;28.87;;;;;;2671999;76;20913;-91
2023/04/17 01:10:37;;;;;;;;;;;7.29;29.50;;;;;;2672610;76;20830;-91
2023/04/17 01:14:05;;;;;;;;;;;7.41;29.37;;;;;;2672436;76;20418;-91
2023/04/17 01:17:33;;;;;;;;;;;7.37;29.16;;;;;;2672380;76;20862;-91
2023/04/17 01:21:02;;;;;;;;;;;7.29;28.92;;;;;;2672025;76;20544;-91
2023/04/17 01:24:30;;;;;;;;;;;7.26;29.10;;;;;;2671691;76;20415;-91
2023/04/17 01:27:58;;;;;;;;;;;7.26;29.73;;;;;;2672049;76;20428;-91
2023/04/17 01:31:27;;;;;;;;;;;7.29;30.45;;;;;;2672356;76;20414;-90
2023/04/17 01:34:55;;;;;;;;;;;7.38;30.86;;;;;;2671774;76;20412;-91
2023/04/17 01:38:23;;;;;;;;;;;7.43;30.90;;;;;;2671686;76;20453;-91
2023/04/17 01:41:51;;;;;;;;;;;7.49;31.16;;;;;;2672099;76;20407;-92
2023/04/17 01:45:20;;;;;;;;;;;7.58;31.49;;;;;;2671599;76;20414;-91
2023/04/17 01:48:48;;;;;;;;;;;7.59;31.77;;;;;;2671599;76;20908;-91
2023/04/17 01:52:16;;;;;;;;;;;7.77;32.67;;;;;;2671646;76;20860;-92
2023/04/17 01:55:44;;;;;;;;;;;7.89;32.89;;;;;;2671325;76;20419;-89
2023/04/17 01:59:12;;;;;;;;;;;8.04;32.98;;;;;;2671966;76;20422;-91
2023/04/17 02:02:40;;;;;;;;;;;8.09;32.83;;;;;;2671373;76;20419;-92
2023/04/17 02:06:08;;;;;;;;;;;8.14;32.73;;;;;;2670600;76;20428;-91
2023/04/17 02:09:36;;;;;;;;;;;8.19;32.85;;;;;;2671701;76;20477;-91
2023/04/17 02:13:05;;;;;;;;;;;8.23;32.83;;;;;;2671492;76;20408;-91
2023/04/17 02:16:33;;;;;;;;;;;8.27;32.92;;;;;;2671359;76;20415;-91
2023/04/17 02:20:01;;;;;;;;;;;8.28;32.68;;;;;;2671670;76;20412;-91
2023/04/17 02:23:29;;;;;;;;;;;8.24;32.86;;;;;;2671135;76;20936;-91
2023/04/17 02:26:57;;;;;;;;;;;8.29;32.97;;;;;;2671977;76;20873;-91
2023/04/17 02:30:25;;;;;;;;;;;8.26;33.05;;;;;;2671816;76;20855;-91
2023/04/17 02:33:53;;;;;;;;;;;8.21;33.09;;;;;;2671285;76;20913;-91
2023/04/17 02:37:21;;;;;;;;;;;8.22;33.31;;;;;;2671811;76;20437;-91
2023/04/17 02:40:49;;;;;;;;;;;8.18;33.31;;;;;;2672160;76;20423;-91
2023/04/17 02:44:17;;;;;;;;;;;8.19;33.60;;;;;;2671686;76;20411;-92
2023/04/17 02:47:46;;;;;;;;;;;8.19;33.52;;;;;;2672561;76;20450;-91
2023/04/17 02:51:14;;;;;;;;;;;8.26;33.70;;;;;;2672490;76;20435;-90
2023/04/17 02:54:42;;;;;;;;;;;8.28;33.98;;;;;;2672218;76;20418;-91
2023/04/17 02:58:10;;;;;;;;;;;8.30;33.86;;;;;;2672097;76;20462;-91
2023/04/17 03:01:39;;;;;;;;;;;8.29;33.72;;;;;;2671701;76;20426;-92
2023/04/17 03:05:08;;;;;;;;;;;8.24;33.94;;;;;;2671943;76;20409;-91
2023/04/17 03:08:37;;;;;;;;;;;8.28;34.32;;;;;;2670435;76;20312;-91
2023/04/17 03:12:05;;;;;;;;;;;8.29;34.31;;;;;;2671501;76;20434;-91
2023/04/17 03:15:35;;;;;;;;;;;8.33;34.44;;;;;;2671991;76;20418;-91
2023/04/17 03:19:03;;;;;;;;;;;8.46;34.69;;;;;;2671789;76;20451;-91
2023/04/17 03:22:31;;;;;;;;;;;8.53;34.51;;;;;;2671627;76;20420;-91
2023/04/17 03:25:59;;;;;;;;;;;8.56;33.96;;;;;;2670749;76;20432;-93
2023/04/17 03:29:30;;;;;;;;;;;8.61;34.57;;;;;;2671443;76;20437;-91
2023/04/17 03:32:58;;;;;;;;;;;8.60;33.51;;;;;;2671898;76;20791;-91
2023/04/17 03:36:26;;;;;;;;;;;8.48;33.54;;;;;;2670784;76;20483;-91
2023/04/17 03:39:54;;;;;;;;;;;8.53;34.19;;;;;;2671843;76;20479;-91
2023/04/17 03:43:25;;;;;;;;;;;8.61;34.39;;;;;;2671542;76;20954;-91
2023/04/17 03:46:53;;;;;;;;;;;8.66;34.37;;;;;;2670623;76;20365;-91
2023/04/17 03:50:21;;;;;;;;;;;8.68;34.39;;;;;;2671627;76;20882;-91
2023/04/17 03:53:49;;;;;;;;;;;8.68;34.40;;;;;;2671642;76;20739;-91
2023/04/17 03:57:17;;;;;;;;;;;8.73;34.49;;;;;;2670400;76;20344;-91
2023/04/17 04:00:47;;;;;;;;;;;8.71;34.25;;;;;;2670817;76;20814;-91
2023/04/17 04:04:15;;;;;;;;;;;8.72;34.47;;;;;;2672341;76;20433;-92
2023/04/17 04:07:44;;;;;;;;;;;8.73;34.41;;;;;;2672106;76;20447;-89
2023/04/17 04:11:12;;;;;;;;;;;8.72;34.61;;;;;;2672237;76;20417;-91
2023/04/17 04:14:43;;;;;;;;;;;8.73;34.41;;;;;;2672563;76;20336;-91
2023/04/17 04:18:11;;;;;;;;;;;8.71;34.57;;;;;;2671905;76;20668;-91
2023/04/17 04:21:40;;;;;;;;;;;8.62;33.41;;;;;;2671016;76;20967;-91
2023/04/17 04:25:09;;;;;;;;;;;8.64;34.31;;;;;;2671582;76;20459;-90
2023/04/17 04:28:41;;;;;;;;;;;8.56;33.21;;;;;;2671714;76;20425;-91
2023/04/17 04:32:12;;;;;;;;;;;8.39;32.89;;;;;;2671558;76;20504;-90
2023/04/17 04:35:40;;;;;;;;;;;8.37;34.23;;;;;;2670763;76;20378;-90
2023/04/17 04:39:08;;;;;;;;;;;8.43;34.26;;;;;;2671187;76;20498;-91
2023/04/17 04:42:39;;;;;;;;;;;8.37;33.87;;;;;;2671501;76;20455;-90
2023/04/17 04:46:07;;;;;;;;;;;8.29;34.11;;;;;;2671336;76;20461;-90
2023/04/17 04:49:35;;;;;;;;;;;8.55;35.38;;;;;;2671553;76;20428;-90
2023/04/17 04:53:03;;;;;;;;;;;8.70;34.79;;;;;;2671827;76;20476;-89
2023/04/17 04:56:31;;;;;;;;;;;8.66;33.76;;;;;;2672069;76;20460;-90
2023/04/17 04:59:59;;;;;;;;;;;8.64;34.01;;;;;;2671266;76;20786;-90
2023/04/17 05:03:27;;;;;;;;;;;8.78;34.87;;;;;;2670529;76;20481;-91
2023/04/17 05:06:59;;;;;;;;;;;8.91;34.79;;;;;;2671052;76;20450;-89
2023/04/17 05:10:27;;;;;;;;;;;8.95;34.29;;;;;;2669306;76;20811;-90
2023/04/17 05:13:55;;;;;;;;;;;9.10;34.99;;;;;;2670451;76;20467;-90
2023/04/17 05:17:23;;;;;;;;;;;9.29;35.08;;;;;;2667818;76;20306;-90
2023/04/17 05:20:52;;;;;;;;;;;9.46;34.02;;;;;;2668466;76;20503;-90
2023/04/17 05:24:20;;;;;;;;;;;9.25;31.57;;;;;;2668068;76;20477;-89
2023/04/17 05:27:48;;;;;;;;;;;9.44;32.48;;;;;;2669041;76;20449;-91
2023/04/17 05:31:17;;;;;;;;;;;9.77;33.92;;;;;;2667921;76;20800;-91
2023/04/17 05:34:48;;;;;;;;;;;9.96;33.90;;;;;;2667374;76;20311;-92
2023/04/17 05:38:16;;;;;;;;;;;10.11;33.63;;;;;;2666594;76;20951;-91
2023/04/17 05:41:46;;;;;;;;;;;10.20;33.76;;;;;;2668103;76;20439;-91
2023/04/17 05:45:14;;;;;;;;;;;10.21;33.67;;;;;;2668095;76;20292;-92
2023/04/17 05:48:42;;;;;;;;;;;10.21;32.80;;;;;;2667052;76;20457;-91
2023/04/17 05:52:10;;;;;;;;;;;10.20;30.99;;;;;;2668341;76;20474;-92
2023/04/17 05:55:39;;;;;;;;;;;10.05;31.39;;;;;;2668873;76;20448;-92
2023/04/17 05:59:07;;;;;;;;;;;9.83;31.48;;;;;;2668930;76;20918;-91
2023/04/17 06:02:36;;;;;;;;;;;9.90;32.84;;;;;;2668949;76;20486;-91
2023/04/17 06:06:04;;;;;;;;;;;10.00;33.90;;;;;;2668563;76;20330;-91
2023/04/17 06:09:32;;;;;;;;;;;9.86;32.06;;;;;;2667970;76;20877;-92
2023/04/17 06:13:01;;;;;;;;;;;9.70;32.94;;;;;;2667748;76;20365;-91
2023/04/17 06:16:29;;;;;;;;;;;9.92;35.10;;;;;;2666244;76;20480;-91
2023/04/17 06:20:03;;;;;;;;;;;9.95;34.41;;;;;;2667727;76;20516;-91
2023/04/17 06:23:27;;;;;;;;;;;9.99;33.76;;;;;;2668228;76;20427;-89
2023/04/17 06:26:55;;;;;;;;;;;9.98;33.56;;;;;;2668724;76;21648;-89
2023/04/17 06:30:23;;;;;;;;;;;10.10;33.25;;;;;;2668600;76;20412;-91
2023/04/17 06:33:52;;;;;;;;;;;10.14;32.52;;;;;;2668572;76;20314;-92
2023/04/17 06:37:20;;;;;;;;;;;10.18;32.31;;;;;;2668298;76;20453;-91
2023/04/17 06:40:48;;;;;;;;;;;10.13;31.24;;;;;;2668496;76;20913;-91
2023/04/17 06:44:17;;;;;;;;;;;10.24;31.87;;;;;;2668198;76;20943;-91
2023/04/17 06:47:45;;;;;;;;;;;10.11;31.48;;;;;;2668317;76;20437;-91
2023/04/17 06:51:13;;;;;;;;;;;10.10;32.17;;;;;;2668002;76;20924;-91
2023/04/17 06:54:41;;;;;;;;;;;10.15;31.77;;;;;;2668748;76;20722;-91
2023/04/17 06:58:09;;;;;;;;;;;10.23;31.87;;;;;;2667432;76;20428;-92
2023/04/17 07:01:39;;;;;;;;;;;10.30;31.89;;;;;;2667783;76;20506;-92
2023/04/17 07:05:10;;;;;;;;;;;10.52;31.52;;;;;;2667640;76;20560;-91
2023/04/17 07:08:38;;;;;;;;;;;10.85;30.14;;;;;;2668643;76;20463;-91
2023/04/17 07:12:11;;;;;;;;;;;11.25;30.00;;;;;;2668578;76;20468;-92
2023/04/17 07:15:36;;;;;;;;;;;11.53;30.35;;;;;;2668067;76;20452;-92
2023/04/17 07:19:04;;;;;;;;;;;11.38;29.99;;;;;;2667352;76;20460;-91
2023/04/17 07:22:38;;;;;;;;;;;11.02;29.92;;;;;;2666465;76;20902;-92
2023/04/17 07:26:02;;;;;;;;;;;10.78;30.95;;;;;;2666746;76;20453;-92
2023/04/17 07:29:31;;;;;;;;;;;10.55;31.18;;;;;;2667856;76;20764;-91
2023/04/17 07:32:59;;;;;;;;;;;10.40;31.91;;;;;;2668709;76;20518;-90
2023/04/17 07:36:28;;;;;;;;;;;10.36;31.94;;;;;;2668996;76;20503;-91
2023/04/17 07:39:57;;;;;;;;;;;10.31;32.00;;;;;;2669144;76;20438;-92
2023/04/17 07:43:25;;;;;;;;;;;10.26;31.65;;;;;;2668380;76;20439;-91
2023/04/17 07:46:58;;;;;;;;;;;10.30;31.83;;;;;;2669244;76;20478;-91
2023/04/17 07:50:23;;;;;;;;;;;10.35;32.61;;;;;;2668483;76;20466;-91
2023/04/17 07:53:51;;;;;;;;;;;10.49;32.85;;;;;;2668645;76;20340;-90
2023/04/17 07:57:20;;;;;;;;;;;10.71;33.11;;;;;;2668493;76;20310;-91
2023/04/17 08:00:49;;;;;;;;;;;10.85;32.27;;;;;;2668531;76;20466;-91
2023/04/17 08:04:17;;;;;;;;;;;10.94;32.39;;;;;;2668889;76;20451;-92
2023/04/17 08:07:45;;;;;;;;;;;11.05;31.00;;;;;;2669249;76;20445;-92
2023/04/17 08:11:15;;;;;;;;;;;10.99;30.42;;;;;;2668414;76;20419;-91
2023/04/17 08:14:43;;;;;;;;;;;11.07;31.04;;;;;;2668758;76;20436;-92
2023/04/17 08:18:12;;;;;;;;;;;11.22;31.60;;;;;;2668100;76;20429;-92
2023/04/17 08:21:40;;;;;;;;;;;11.30;31.46;;;;;;2668484;76;20485;-90
2023/04/17 08:25:08;;;;;;;;;;;11.43;31.56;;;;;;2667588;76;20443;-89
2023/04/17 08:28:37;;;;;;;;;;;11.43;30.83;;;;;;2668462;76;20483;-89
2023/04/17 08:32:05;;;;;;;;;;;11.51;30.58;;;;;;2668607;76;20502;-90
2023/04/17 08:35:35;;;;;;;;;;;11.67;30.03;;;;;;2668834;76;20442;-90
2023/04/17 08:39:03;;;;;;;;;;;11.76;27.78;;;;;;2668584;76;20892;-89
2023/04/17 08:42:31;;;;;;;;;;;12.07;29.31;;;;;;2668732;76;20469;-90
2023/04/17 08:46:00;;;;;;;;;;;12.46;29.89;;;;;;2668380;76;20424;-90
2023/04/17 08:49:28;;;;;;;;;;;13.07;29.96;;;;;;2668291;76;20423;-90
2023/04/17 08:52:56;;;;;;;;;;;14.05;28.96;;;;;;2668811;76;21316;-91
2023/04/17 08:56:24;;;;;;;;;;;14.93;24.92;;;;;;2668239;76;20421;-90
2023/04/17 08:59:52;;;;;;;;;;;15.43;22.11;;;;;;2668276;76;20995;-88
2023/04/17 09:03:20;;;;;;;;;;;15.17;15.65;;;;;;2668156;76;20554;-90
2023/04/17 09:06:52;;;;;;;;;;;15.97;17.54;;;;;;2668453;76;20427;-90
2023/04/17 09:10:21;;;;;;;;;;;16.66;18.89;;;;;;2669026;76;20647;-90
2023/04/17 09:13:52;;;;;;;;;;;16.59;16.31;;;;;;2667827;76;20421;-89
2023/04/17 09:17:20;;;;;;;;;;;16.92;17.02;;;;;;2668262;76;20765;-90
2023/04/17 09:20:52;;;;;;;;;;;17.17;15.39;;;;;;2668104;76;20310;-89
2023/04/17 09:24:19;;;;;;;;;;;17.85;16.60;;;;;;2668259;76;20328;-91
2023/04/17 09:27:47;;;;;;;;;;;17.55;10.43;;;;;;2668869;76;20318;-90
2023/04/17 09:31:15;;;;;;;;;;;16.49;9.27;;;;;;2668367;76;20336;-90
2023/04/17 09:34:44;;;;;;;;;;;16.27;15.64;;;;;;2669151;76;20549;-89
2023/04/17 09:38:12;;;;;;;;;;;15.21;10.40;;;;;;2669667;76;20439;-90
2023/04/17 09:41:40;;;;;;;;;;;14.73;11.32;;;;;;2669175;76;21007;-90
2023/04/17 09:45:14;;;;;;;;;;;14.98;12.99;;;;;;2667700;76;20463;-90
2023/04/17 09:48:43;;;;;;;;;;;15.60;14.78;;;;;;2667992;76;20514;-89
2023/04/17 09:52:08;;;;;;;;;;;15.65;11.99;;;;;;2667634;76;20435;-89
2023/04/17 09:55:37;;;;;;;;;;;15.99;10.33;;;;;;2667551;76;20488;-90
2023/04/17 09:59:05;;;;;;;;;;;16.63;15.12;;;;;;2668066;76;20466;-90
2023/04/17 10:02:33;;;;;;;;;;;17.15;16.56;;;;;;2668170;76;20474;-89
2023/04/17 10:06:02;;;;;;;;;;;16.92;10.26;;;;;;2667806;76;20435;-90
2023/04/17 10:09:30;;;;;;;;;;;16.88;8.56;;;;;;2667519;76;20419;-90
2023/04/17 10:12:58;;;;;;;;;;;17.37;15.09;;;;;;2667489;76;20859;-90
2023/04/17 10:16:26;;;;;;;;;;;17.30;11.56;;;;;;2667698;76;20440;-90
2023/04/17 10:19:54;;;;;;;;;;;16.74;11.25;;;;;;2669388;76;20459;-90
2023/04/17 10:23:22;;;;;;;;;;;15.75;7.24;;;;;;2668574;76;20463;-90
2023/04/17 10:26:50;;;;;;;;;;;16.12;10.15;;;;;;2667734;76;20423;-90
2023/04/17 10:30:21;;;;;;;;;;;16.90;12.15;;;;;;2667829;76;20411;-90
2023/04/17 10:33:49;;;;;;;;;;;17.96;12.62;;;;;;2667939;76;20952;-90
2023/04/17 10:37:17;;;;;;;;;;;18.68;12.63;;;;;;2668540;76;20504;-90
2023/04/17 10:40:46;;;;;;;;;;;18.67;13.95;;;;;;2668274;76;20498;-88
2023/04/17 10:44:17;;;;;;;;;;;18.59;16.10;;;;;;2665869;76;20760;-90
2023/04/17 10:47:45;;;;;;;;;;;18.55;18.02;;;;;;2668479;76;20454;-90
2023/04/17 10:51:13;;;;;;;;;;;18.40;18.27;;;;;;2668499;76;20737;-90
2023/04/17 10:54:46;;;;;;;;;;;17.98;15.80;;;;;;2667371;76;20442;-90
2023/04/17 10:58:14;;;;;;;;;;;17.36;13.19;;;;;;2668303;76;20486;-89
2023/04/17 11:01:42;;;;;;;;;;;17.65;17.77;;;;;;2667845;76;20423;-90
2023/04/17 11:05:10;;;;;;;;;;;17.89;17.95;;;;;;2667146;76;20428;-90
2023/04/17 11:08:44;;;;;;;;;;;18.14;18.53;;;;;;2668067;76;20427;-90
2023/04/17 11:12:11;;;;;;;;;;;18.17;14.46;;;;;;2668624;76;20436;-90
2023/04/17 11:15:40;;;;;;;;;;;18.17;14.79;;;;;;2666825;76;20433;-90
2023/04/17 11:19:08;;;;;;;;;;;18.29;15.97;;;;;;2667437;76;20469;-89
2023/04/17 11:22:37;;;;;;;;;;;18.93;16.41;;;;;;2668364;76;20467;-89
2023/04/17 11:26:05;;;;;;;;;;;18.61;10.17;;;;;;2667575;76;20443;-91
2023/04/17 11:29:33;;;;;;;;;;;17.85;10.98;;;;;;2667982;76;20509;-90
2023/04/17 11:33:01;;;;;;;;;;;17.36;12.71;;;;;;2667821;76;20964;-91
2023/04/17 11:36:30;;;;;;;;;;;16.96;13.04;;;;;;2668009;76;20470;-90
2023/04/17 11:40:01;;;;;;;;;;;16.49;13.33;;;;;;2667107;76;20499;-90
2023/04/17 11:43:29;;;;;;;;;;;16.49;12.17;;;;;;2668743;76;20462;-90
2023/04/17 11:46:57;;;;;;;;;;;17.16;12.59;;;;;;2667771;76;20456;-91
2023/04/17 11:50:25;;;;;;;;;;;17.17;11.93;;;;;;2667882;76;20457;-90
2023/04/17 11:53:53;;;;;;;;;;;16.87;12.91;;;;;;2668902;76;20423;-90
2023/04/17 11:57:25;;;;;;;;;;;16.25;10.59;;;;;;2667904;76;21074;-90
2023/04/17 12:00:53;;;;;;;;;;;16.02;11.59;;;;;;2667809;76;20329;-89
2023/04/17 12:04:21;;;;;;;;;;;16.05;10.34;;;;;;2667986;76;20453;-90
2023/04/17 12:07:49;;;;;;;;;;;16.49;12.69;;;;;;2667194;76;20464;-90
2023/04/17 12:11:17;;;;;;;;;;;17.07;12.71;;;;;;2668688;76;20446;-90
2023/04/17 12:14:47;;;;;;;;;;;17.64;13.22;;;;;;2668731;76;20476;-90
2023/04/17 12:18:16;;;;;;;;;;;18.09;11.54;;;;;;2668223;76;20458;-90
2023/04/17 12:21:45;;;;;;;;;;;18.49;10.98;;;;;;2667545;76;20470;-90
2023/04/17 12:25:13;;;;;;;;;;;18.89;13.14;;;;;;2667023;76;20802;-90
2023/04/17 12:28:42;;;;;;;;;;;19.42;13.80;;;;;;2666546;76;20944;-90
2023/04/17 12:32:10;;;;;;;;;;;19.39;9.80;;;;;;2665786;76;20496;-90
2023/04/17 12:39:13;;;;;;;;;;;18.62;9.18;;;;;;2671167;76;20507;-91
2023/04/17 12:42:41;;;;;;;;;;;17.90;6.80;;;;;;2672206;76;20443;-90
2023/04/17 12:46:09;;;;;;;;;;;17.09;8.11;;;;;;2674483;76;20322;-91
2023/04/17 12:49:37;;;;;;;;;;;16.40;9.30;;;;;;2671209;76;20438;-91
2023/04/17 12:53:05;;;;;;;;;;;16.16;7.86;;;;;;2671839;76;20400;-89
2023/04/17 12:56:33;;;;;;;;;;;16.22;8.09;;;;;;2671468;76;20421;-92
2023/04/17 13:00:02;;;;;;;;;;;16.12;8.82;;;;;;2672023;76;20311;-91
2023/04/17 13:03:31;;;;;;;;;;;16.10;9.89;;;;;;2669558;76;20431;-90
2023/04/17 13:06:59;;;;;;;;;;;16.47;11.30;;;;;;2672016;76;21312;-92
2023/04/17 13:10:27;;;;;;;;;;;16.76;11.39;;;;;;2672016;76;20448;-91
2023/04/17 13:13:55;;;;;;;;;;;16.70;10.27;;;;;;2671243;76;20438;-91
2023/04/17 13:17:23;;;;;;;;;;;16.62;9.91;;;;;;2669975;76;20510;-90
2023/04/17 13:20:51;;;;;;;;;;;16.69;9.49;;;;;;2670911;76;20473;-90
2023/04/17 13:24:19;;;;;;;;;;;16.87;10.94;;;;;;2670624;76;20443;-91
2023/04/17 13:27:47;;;;;;;;;;;17.33;10.50;;;;;;2671110;76;20435;-91
2023/04/17 13:31:16;;;;;;;;;;;17.81;12.10;;;;;;2669739;76;20457;-91
2023/04/17 13:34:44;;;;;;;;;;;17.90;12.94;;;;;;2671024;76;20425;-91
2023/04/17 13:38:14;;;;;;;;;;;17.84;14.26;;;;;;2671001;76;20487;-90
2023/04/17 13:41:42;;;;;;;;;;;17.87;14.07;;;;;;2668696;76;20423;-91
2023/04/17 13:45:11;;;;;;;;;;;18.00;13.06;;;;;;2666861;76;20447;-90
2023/04/17 13:48:39;;;;;;;;;;;17.75;9.94;;;;;;2668623;76;20355;-90
2023/04/17 13:52:07;;;;;;;;;;;17.68;10.86;;;;;;2670281;76;20532;-89
2023/04/17 13:55:36;;;;;;;;;;;17.39;10.52;;;;;;2669200;76;20719;-90
2023/04/17 13:59:07;;;;;;;;;;;17.21;8.89;;;;;;2670780;76;20796;-90
2023/04/17 14:02:35;;;;;;;;;;;17.76;7.84;;;;;;2670144;76;20425;-89
2023/04/17 14:06:03;;;;;;;;;;;18.25;5.91;;;;;;2669821;76;20428;-90
2023/04/17 14:09:31;;;;;;;;;;;18.64;8.78;;;;;;2670482;76;20427;-91
2023/04/17 14:12:59;;;;;;;;;;;18.80;6.94;;;;;;2669817;76;20920;-91
2023/04/17 14:16:31;;;;;;;;;;;18.92;9.15;;;;;;2669939;76;20364;-91
2023/04/17 14:19:59;;;;;;;;;;;19.03;9.68;;;;;;2670824;76;20444;-91
2023/04/17 14:23:29;;;;;;;;;;;19.30;10.46;;;;;;2670018;76;20380;-90
2023/04/17 14:26:57;;;;;;;;;;;19.30;8.88;;;;;;2669323;76;20417;-90
2023/04/17 14:30:25;;;;;;;;;;;19.59;9.10;;;;;;2668431;76;20464;-91
2023/04/17 14:33:53;;;;;;;;;;;20.22;10.11;;;;;;2670713;76;20411;-91
2023/04/17 14:37:21;;;;;;;;;;;19.65;6.12;;;;;;2670630;76;20464;-91
2023/04/17 14:40:49;;;;;;;;;;;18.93;9.73;;;;;;2669069;76;20442;-91
2023/04/17 14:44:17;;;;;;;;;;;18.29;5.79;;;;;;2670683;76;20430;-91
2023/04/17 14:47:46;;;;;;;;;;;17.83;4.15;;;;;;2670005;76;21188;-91
2023/04/17 14:51:14;;;;;;;;;;;17.50;5.54;;;;;;2672206;76;20481;-92
2023/04/17 14:54:42;;;;;;;;;;;15.86;3.79;;;;;;2673578;76;20917;-91
2023/04/17 14:58:10;;;;;;;;;;;11.86;0.03;;;;;;2669057;76;20490;-93
2023/04/17 15:09:25;;;;;;;;;;;9.04;26.01;;;;;;2663247;76;20398;-92
2023/04/17 15:12:58;;;;;;;;;;;9.04;35.34;;;;;;2669892;76;20459;-90
2023/04/17 15:16:23;;;;;;;;;;;9.11;36.53;;;;;;2673791;76;20302;-94
2023/04/17 15:19:57;;;;;;;;;;;9.08;36.18;;;;;;2682351;76;20419;-96
2023/04/17 15:27:23;;;;;;;;;;;9.53;38.46;;;;;;2680666;76;20398;-95
2023/04/17 15:42:08;;;;;;;;;;;10.48;37.64;;;;;;2675670;76;20408;-96
2023/04/17 15:49:18;;;;;;;;;;;10.81;38.85;;;;;;2674636;76;20302;-92
2023/04/17 15:53:10;;;;;;;;;;;;;;;;;;;;;
2023/04/17 16:00:25;;;;;;;;;;;11.29;40.62;;;;;;2673169;76;20859;-92
2023/04/17 16:11:12;;;;;;;;;;;11.28;40.39;;;;;;2670062;76;20462;-94
2023/04/17 16:14:56;;;;;;;;;;;11.32;40.63;;;;;;2669295;76;20972;-94
2023/04/17 16:18:29;;;;;;;;;;;11.34;40.91;;;;;;2673689;76;20465;-95
2023/04/17 16:34:21;;;;;;;;;;;11.23;41.04;;;;;;2664385;76;20426;-95
2023/04/17 16:45:45;;;;;;;;;;;11.33;39.96;;;;;;2667121;76;20333;-93
2023/04/17 16:49:10;;;;;;;;;;;11.38;39.73;;;;;;2675185;76;20414;-93
2023/04/17 16:52:44;;;;;;;;;;;11.41;39.98;;;;;;2675193;76;20388;-93
2023/04/17 16:56:19;;;;;;;;;;;11.43;38.98;;;;;;2667651;76;20431;-93
2023/04/17 17:00:04;;;;;;;;;;;11.45;39.10;;;;;;2671592;76;20260;-96
2023/04/17 17:03:28;;;;;;;;;;;11.51;39.59;;;;;;2671130;76;20514;-92
2023/04/17 17:06:56;;;;;;;;;;;11.52;40.07;;;;;;2670225;76;20447;-94
2023/04/17 17:10:56;;;;;;;;;;;11.47;39.96;;;;;;2679364;76;20427;-91
2023/04/17 17:14:24;;;;;;;;;;;11.46;40.32;;;;;;2670983;76;20407;-93
2023/04/17 17:17:52;;;;;;;;;;;11.53;39.72;;;;;;2669892;76;20992;-94
2023/04/17 17:21:20;;;;;;;;;;;11.58;39.90;;;;;;2673173;76;20424;-93
2023/04/17 17:24:57;;;;;;;;;;;11.63;39.07;;;;;;2676257;76;20387;-94
2023/04/17 17:35:51;;;;;;;;;;;11.63;38.98;;;;;;2669928;76;20467;-93
2023/04/17 17:39:25;;;;;;;;;;;11.57;39.60;;;;;;2665943;76;20470;-93
2023/04/17 17:42:53;;;;;;;;;;;11.52;40.08;;;;;;2667580;76;20462;-92
2023/04/17 17:46:26;;;;;;;;;;;11.44;40.39;;;;;;2668363;76;20452;-92
2023/04/17 17:58:00;;;;;;;;;;;;;;;;;;;;;
2023/04/17 18:05:12;;;;;;;;;;;11.03;41.18;;;;;;2664522;76;21259;-92
2023/04/17 18:09:22;;;;;;;;;;;10.96;41.26;;;;;;2676765;76;20416;-94
2023/04/17 18:12:50;;;;;;;;;;;10.89;42.20;;;;;;2672499;76;20473;-92
2023/04/17 18:16:36;;;;;;;;;;;10.88;42.30;;;;;;2669822;76;20557;-92
2023/04/17 18:20:07;;;;;;;;;;;10.71;42.00;;;;;;2667400;76;20492;-91
2023/04/17 18:23:35;;;;;;;;;;;10.67;42.49;;;;;;2667934;76;20438;-93
2023/04/17 18:27:03;;;;;;;;;;;10.64;42.81;;;;;;2666117;76;20453;-92
2023/04/17 18:30:35;;;;;;;;;;;10.67;43.03;;;;;;2668416;76;20450;-92
2023/04/17 18:34:03;;;;;;;;;;;10.65;42.54;;;;;;2669045;76;20434;-92
2023/04/17 18:37:31;;;;;;;;;;;10.66;43.15;;;;;;2669056;76;20458;-92
2023/04/17 18:41:00;;;;;;;;;;;10.67;43.04;;;;;;2668714;76;22151;-91
2023/04/17 18:44:45;;;;;;;;;;;10.66;43.39;;;;;;2672939;76;20428;-94
2023/04/17 18:48:13;;;;;;;;;;;10.63;42.98;;;;;;2679457;76;20440;-92
2023/04/17 18:51:46;;;;;;;;;;;10.53;42.81;;;;;;2680882;76;20459;-93
2023/04/17 18:55:11;;;;;;;;;;;10.45;42.63;;;;;;2679100;76;20481;-93
2023/04/17 18:58:39;;;;;;;;;;;10.39;42.80;;;;;;2677164;76;20396;-94
2023/04/17 19:02:07;;;;;;;;;;;10.45;42.90;;;;;;2679453;76;20396;-94
2023/04/17 19:05:36;;;;;;;;;;;10.44;42.26;;;;;;2679337;76;20329;-94
2023/04/17 19:09:04;;;;;;;;;;;10.50;42.37;;;;;;2680177;76;20385;-95
2023/04/17 19:12:32;;;;;;;;;;;10.54;42.13;;;;;;2680855;76;20704;-92
2023/04/17 19:16:00;;;;;;;;;;;10.62;42.23;;;;;;2681721;76;20473;-95
2023/04/17 19:19:33;;;;;;;;;;;10.59;41.28;;;;;;2680450;76;20414;-95
2023/04/17 19:22:59;;;;;;;;;;;10.56;41.99;;;;;;2679692;76;20476;-93
2023/04/17 19:26:28;;;;;;;;;;;10.48;40.55;;;;;;2682088;76;20416;-94
2023/04/17 19:29:58;;;;;;;;;;;10.36;40.78;;;;;;2682581;76;20418;-94
2023/04/17 19:33:26;;;;;;;;;;;10.30;41.14;;;;;;2681192;76;20649;-93
2023/04/17 19:37:02;;;;;;;;;;;10.24;41.13;;;;;;2681220;76;20419;-93
2023/04/17 19:40:32;;;;;;;;;;;10.22;41.61;;;;;;2680596;76;20500;-95
2023/04/17 19:43:57;;;;;;;;;;;10.24;41.80;;;;;;2680295;76;20721;-94
2023/04/17 19:47:25;;;;;;;;;;;10.24;41.62;;;;;;2679516;76;20650;-94
2023/04/17 19:50:58;;;;;;;;;;;10.25;41.94;;;;;;2676437;76;20378;-94
2023/04/17 19:54:25;;;;;;;;;;;10.28;42.32;;;;;;2682105;76;20434;-94
2023/04/17 19:57:55;;;;;;;;;;;10.28;42.48;;;;;;2679644;76;20329;-94
2023/04/17 20:01:23;;;;;;;;;;;10.26;42.73;;;;;;2680269;76;20402;-94
2023/04/17 20:05:18;;;;;;;;;;;10.29;43.03;;;;;;2677674;76;20356;-95
2023/04/17 20:08:57;;;;;;;;;;;10.23;42.80;;;;;;2676997;76;20478;-94
2023/04/17 20:12:20;;;;;;;;;;;10.22;42.85;;;;;;2678476;76;20309;-95
2023/04/17 20:15:51;;;;;;;;;;;10.20;42.88;;;;;;2680324;76;20428;-95
2023/04/17 20:19:22;;;;;;;;;;;10.21;43.23;;;;;;2681876;76;20274;-94
2023/04/17 20:22:52;;;;;;;;;;;10.24;43.26;;;;;;2680015;76;20413;-95
2023/04/17 20:26:26;;;;;;;;;;;10.20;43.19;;;;;;2683474;76;20323;-93
2023/04/17 20:29:54;;;;;;;;;;;10.14;43.55;;;;;;2681305;76;20446;-94
2023/04/17 20:33:23;;;;;;;;;;;10.15;43.64;;;;;;2675630;76;20457;-94
2023/04/17 20:37:03;;;;;;;;;;;10.10;43.45;;;;;;2672477;76;20496;-94
2023/04/17 20:40:38;;;;;;;;;;;10.13;43.86;;;;;;2669746;76;20436;-94
2023/04/17 20:44:10;;;;;;;;;;;10.13;44.01;;;;;;2667626;76;20454;-94
2023/04/17 20:47:38;;;;;;;;;;;10.16;43.83;;;;;;2669411;76;20605;-94
2023/04/17 20:51:06;;;;;;;;;;;10.14;43.93;;;;;;2670532;76;20440;-94
2023/04/17 20:54:34;;;;;;;;;;;10.13;44.09;;;;;;2669757;76;20424;-94
2023/04/17 20:58:02;;;;;;;;;;;10.13;43.93;;;;;;2672099;76;20486;-94
2023/04/17 21:01:31;;;;;;;;;;;10.14;44.03;;;;;;2672997;76;20387;-95
2023/04/17 21:05:04;;;;;;;;;;;10.15;44.07;;;;;;2672600;76;20506;-95
2023/04/17 21:08:42;;;;;;;;;;;10.19;44.22;;;;;;2674122;76;20319;-95
2023/04/17 21:12:08;;;;;;;;;;;10.15;43.93;;;;;;2673211;76;20963;-94
2023/04/17 21:15:38;;;;;;;;;;;10.12;43.70;;;;;;2674199;76;20496;-95
2023/04/17 21:19:06;;;;;;;;;;;10.07;43.69;;;;;;2673224;76;20433;-94
2023/04/17 21:22:56;;;;;;;;;;;10.01;43.97;;;;;;2673276;76;20438;-93
2023/04/17 21:26:24;;;;;;;;;;;9.99;43.91;;;;;;2671315;76;20432;-94
2023/04/17 21:29:53;;;;;;;;;;;10.00;43.84;;;;;;2671753;76;20452;-94
2023/04/17 21:33:21;;;;;;;;;;;9.93;43.48;;;;;;2670860;76;20455;-94
2023/04/17 21:36:49;;;;;;;;;;;9.83;42.91;;;;;;2672192;76;20776;-94
2023/04/17 21:40:19;;;;;;;;;;;9.75;42.51;;;;;;2672236;76;20401;-94
2023/04/17 21:43:47;;;;;;;;;;;9.67;42.32;;;;;;2672666;76;20460;-95
2023/04/17 21:47:17;;;;;;;;;;;9.66;42.47;;;;;;2671897;76;20512;-94